Time;durP1;ratioP1;P1;durP2;ratioP2;P2;SDS_P1;SDS_P2;PMS_P1;PMS_P2;Temp;Humidity;BMP_temperature;BMP_pressure;BME280_temperature;BME280_humidity;BME280_pressure;Samples;Min_cycle;Max_cycle;Signal;HPM_P1;HPM_P2
2022/03/05 00:01:07;;;;;;;52.90;19.13;;;-3.60;99.90;;;;;;4969324;28;20055;-54
2022/03/05 00:03:34;;;;;;;63.38;19.67;;;-3.60;99.90;;;;;;4969705;28;20113;-52
2022/03/05 00:06:00;;;;;;;65.00;21.00;;;-3.60;99.90;;;;;;4969469;28;20035;-54
2022/03/05 00:08:25;;;;;;;63.88;21.13;;;-3.60;99.90;;;;;;4969469;28;20027;-55
2022/03/05 00:10:51;;;;;;;67.65;21.58;;;-3.60;99.90;;;;;;4970271;28;20046;-54
2022/03/05 00:13:17;;;;;;;58.53;20.48;;;-3.60;99.90;;;;;;4984114;28;20061;-52
2022/03/05 00:15:43;;;;;;;61.60;20.15;;;-3.60;99.90;;;;;;4968793;28;20077;-52
2022/03/05 00:18:09;;;;;;;58.45;22.63;;;-3.70;99.90;;;;;;4969254;28;20031;-53
2022/03/05 00:20:34;;;;;;;71.13;21.65;;;-3.70;99.90;;;;;;4969474;28;20524;-54
2022/03/05 00:23:00;;;;;;;69.28;22.80;;;-3.70;99.90;;;;;;4969785;28;20027;-54
2022/03/05 00:25:26;;;;;;;76.13;22.17;;;-3.70;99.90;;;;;;4969581;28;20049;-54
2022/03/05 00:27:53;;;;;;;68.82;22.85;;;-3.80;99.90;;;;;;4969571;28;20023;-54
2022/03/05 00:30:19;;;;;;;52.97;18.92;;;-3.80;99.90;;;;;;4968969;28;20034;-54
2022/03/05 00:32:46;;;;;;;67.38;19.63;;;-3.80;99.90;;;;;;4969469;28;20107;-53
2022/03/05 00:35:12;;;;;;;70.25;21.35;;;-3.90;99.90;;;;;;4969118;28;20049;-52
2022/03/05 00:37:38;;;;;;;55.05;20.65;;;-3.90;99.90;;;;;;4969721;28;20034;-55
2022/03/05 00:40:04;;;;;;;66.97;22.75;;;-3.90;99.90;;;;;;4968836;28;20031;-53
2022/03/05 00:42:30;;;;;;;58.67;20.20;;;-3.90;99.90;;;;;;4969037;28;20545;-55
2022/03/05 00:44:56;;;;;;;54.53;19.20;;;-4.00;99.90;;;;;;4969874;28;20062;-52
2022/03/05 00:47:22;;;;;;;60.38;21.25;;;-4.00;99.90;;;;;;4968949;28;20470;-53
2022/03/05 00:49:48;;;;;;;62.33;23.30;;;-4.00;99.90;;;;;;4969715;28;20034;-54
2022/03/05 00:52:13;;;;;;;55.13;20.77;;;-4.00;99.90;;;;;;4968770;28;20660;-54
2022/03/05 00:54:39;;;;;;;71.13;22.60;;;-4.10;99.90;;;;;;4969540;28;20046;-54
2022/03/05 00:57:04;;;;;;;73.65;23.15;;;-4.00;99.90;;;;;;4971365;28;20049;-53
2022/03/05 00:59:30;;;;;;;64.85;23.35;;;-4.00;99.90;;;;;;4973245;28;20093;-52
2022/03/05 01:01:56;;;;;;;59.85;20.52;;;-4.00;99.90;;;;;;4972182;28;20114;-55
2022/03/05 01:04:22;;;;;;;64.28;21.98;;;-4.00;99.90;;;;;;4971970;28;20096;-54
2022/03/05 01:06:48;;;;;;;65.18;22.80;;;-4.00;99.90;;;;;;4972271;28;20118;-54
2022/03/05 01:09:14;;;;;;;71.47;22.70;;;-4.10;99.90;;;;;;4972038;28;20023;-54
2022/03/05 01:11:40;;;;;;;59.00;19.38;;;-4.10;99.90;;;;;;4987590;28;20022;-53
2022/03/05 01:14:07;;;;;;;68.40;22.65;;;-4.10;99.90;;;;;;4972755;28;20025;-53
2022/03/05 01:16:34;;;;;;;68.18;21.60;;;-4.20;99.90;;;;;;4972867;28;20035;-54
2022/03/05 01:19:00;;;;;;;58.92;21.35;;;-4.20;99.90;;;;;;4971629;28;20122;-55
2022/03/05 01:21:27;;;;;;;62.47;20.08;;;-4.20;99.90;;;;;;4972381;28;20029;-55
2022/03/05 01:23:53;;;;;;;64.10;20.95;;;-4.20;99.90;;;;;;4972950;28;20047;-55
2022/03/05 01:26:19;;;;;;;63.05;20.35;;;-4.30;99.90;;;;;;4972796;28;20030;-55
2022/03/05 01:28:44;;;;;;;61.60;20.65;;;-4.30;99.90;;;;;;4972396;28;20023;-55
2022/03/05 01:31:10;;;;;;;72.10;22.15;;;-4.30;99.90;;;;;;4971438;28;20038;-54
2022/03/05 01:33:35;;;;;;;76.78;23.60;;;-4.30;99.90;;;;;;4972066;28;20031;-52
2022/03/05 01:36:01;;;;;;;62.47;23.45;;;-4.20;99.90;;;;;;4971839;28;20057;-54
2022/03/05 01:38:27;;;;;;;75.50;23.70;;;-4.20;99.90;;;;;;4972418;28;20033;-55
2022/03/05 01:40:52;;;;;;;70.60;24.77;;;-4.20;99.90;;;;;;4972499;28;20026;-52
2022/03/05 01:43:18;;;;;;;67.68;22.02;;;-4.20;99.90;;;;;;4971573;28;20058;-55
2022/03/05 01:45:44;;;;;;;77.97;22.08;;;-4.20;99.90;;;;;;4971833;28;20130;-55
2022/03/05 01:48:09;;;;;;;66.22;21.92;;;-4.20;99.90;;;;;;4970921;28;20039;-54
2022/03/05 01:50:35;;;;;;;69.78;21.92;;;-4.20;99.90;;;;;;4972564;28;20022;-53
2022/03/05 01:53:01;;;;;;;61.40;19.45;;;-4.20;99.90;;;;;;4971457;28;20058;-54
2022/03/05 01:55:27;;;;;;;60.80;19.50;;;-4.20;99.90;;;;;;4971798;28;20037;-54
2022/03/05 01:57:53;;;;;;;56.90;20.88;;;-4.30;99.90;;;;;;4971487;28;20035;-54
2022/03/05 02:00:20;;;;;;;54.22;19.25;;;-4.30;99.90;;;;;;4971869;28;20383;-54
2022/03/05 02:02:46;;;;;;;62.72;20.98;;;-4.40;99.90;;;;;;4971157;28;20031;-54
2022/03/05 02:05:13;;;;;;;56.22;19.15;;;-4.40;99.90;;;;;;4972235;28;20022;-55
2022/03/05 02:07:39;;;;;;;53.75;18.25;;;-4.50;99.90;;;;;;4971095;28;20023;-53
2022/03/05 02:10:08;;;;;;;51.45;18.40;;;-4.60;99.90;;;;;;4971342;28;20031;-54
2022/03/05 02:12:36;;;;;;;53.13;19.35;;;-4.70;99.90;;;;;;4986027;28;20041;-53
2022/03/05 02:15:04;;;;;;;58.20;18.70;;;-4.80;99.90;;;;;;4969560;28;20062;-51
2022/03/05 02:17:29;;;;;;;51.40;20.27;;;-4.90;99.90;;;;;;4970685;28;20035;-53
2022/03/05 02:19:57;;;;;;;63.95;21.65;;;-4.90;99.90;;;;;;4971580;28;20509;-55
2022/03/05 02:22:24;;;;;;;59.05;22.27;;;-5.00;99.90;;;;;;4970717;28;20031;-54
2022/03/05 02:24:52;;;;;;;82.15;23.48;;;-4.90;99.90;;;;;;4971522;28;20037;-53
2022/03/05 02:27:20;;;;;;;77.20;22.45;;;-4.90;99.90;;;;;;4971001;28;20050;-55
2022/03/05 02:29:45;;;;;;;71.00;23.48;;;-4.90;99.90;;;;;;4970978;28;20026;-53
2022/03/05 02:32:11;;;;;;;67.95;22.67;;;-4.90;99.90;;;;;;4971293;28;20015;-54
2022/03/05 02:34:37;;;;;;;79.30;25.95;;;-4.90;99.90;;;;;;4970842;28;20043;-54
2022/03/05 02:37:02;;;;;;;62.22;22.27;;;-4.90;99.90;;;;;;4970852;28;20031;-54
2022/03/05 02:39:28;;;;;;;62.15;19.77;;;-4.90;99.90;;;;;;4971300;28;20399;-55
2022/03/05 02:41:55;;;;;;;71.28;23.17;;;-4.90;99.90;;;;;;4970939;28;20058;-57
2022/03/05 02:44:21;;;;;;;68.55;21.50;;;-4.90;99.90;;;;;;4970909;28;20026;-56
2022/03/05 02:46:49;;;;;;;68.45;20.92;;;-4.90;99.90;;;;;;4971509;28;20067;-55
2022/03/05 02:49:15;;;;;;;68.53;21.70;;;-4.90;99.90;;;;;;4970947;28;20042;-57
2022/03/05 02:51:41;;;;;;;66.13;21.92;;;-4.90;99.90;;;;;;4970790;28;20027;-56
2022/03/05 02:54:07;;;;;;;77.85;22.70;;;-5.00;99.90;;;;;;4970482;28;20034;-56
2022/03/05 02:56:33;;;;;;;79.28;23.23;;;-5.00;99.90;;;;;;4971046;28;20027;-57
2022/03/05 02:58:58;;;;;;;80.03;22.05;;;-5.00;99.90;;;;;;4970435;28;20145;-57
2022/03/05 03:01:24;;;;;;;63.55;21.27;;;-5.10;99.90;;;;;;4969006;28;20491;-56
2022/03/05 03:03:50;;;;;;;71.97;22.90;;;-5.10;99.90;;;;;;4971218;28;20113;-55
2022/03/05 03:06:16;;;;;;;73.22;22.73;;;-5.10;99.90;;;;;;4969994;28;20030;-55
2022/03/05 03:08:42;;;;;;;72.10;23.17;;;-5.10;99.90;;;;;;4970654;28;20042;-55
2022/03/05 03:11:07;;;;;;;73.25;24.17;;;-5.10;99.90;;;;;;4970580;28;20049;-56
2022/03/05 03:13:33;;;;;;;78.25;26.27;;;-5.10;99.90;;;;;;4970383;28;20460;-56
2022/03/05 03:15:59;;;;;;;64.07;22.42;;;-5.10;99.90;;;;;;4969952;28;20027;-55
2022/03/05 03:18:24;;;;;;;78.85;23.45;;;-5.10;99.90;;;;;;4969827;28;20031;-56
2022/03/05 03:20:50;;;;;;;78.78;21.73;;;-5.10;99.90;;;;;;4970282;28;20038;-56
2022/03/05 03:23:15;;;;;;;74.75;21.98;;;-5.10;99.90;;;;;;4970537;28;20022;-55
2022/03/05 03:25:41;;;;;;;82.65;24.17;;;-5.10;99.90;;;;;;4970567;28;20035;-55
2022/03/05 03:28:07;;;;;;;75.80;23.08;;;-5.10;99.90;;;;;;4969457;28;20030;-54
2022/03/05 03:30:33;;;;;;;75.57;22.58;;;-5.10;99.90;;;;;;4970380;28;20085;-55
2022/03/05 03:32:59;;;;;;;70.93;23.88;;;-5.10;99.90;;;;;;4969674;28;20030;-54
2022/03/05 03:35:25;;;;;;;72.82;23.63;;;-5.10;99.90;;;;;;4970421;28;20023;-55
2022/03/05 03:37:51;;;;;;;83.07;24.63;;;-5.10;99.90;;;;;;4968586;28;20520;-56
2022/03/05 03:40:18;;;;;;;70.10;21.65;;;-5.10;99.90;;;;;;4969184;28;20390;-55
2022/03/05 03:42:48;;;;;;;77.22;21.48;;;-5.10;99.90;;;;;;4969054;28;20031;-57
2022/03/05 03:45:15;;;;;;;62.80;22.25;;;-5.20;99.90;;;;;;4969049;28;20038;-57
2022/03/05 03:47:43;;;;;;;57.45;18.60;;;-5.20;99.90;;;;;;4970512;28;20034;-57
2022/03/05 03:50:10;;;;;;;58.10;20.83;;;-5.30;99.90;;;;;;4969825;28;20035;-57
2022/03/05 03:52:36;;;;;;;73.40;21.13;;;-5.30;99.90;;;;;;4969992;28;20039;-57
2022/03/05 03:55:05;;;;;;;69.43;22.58;;;-5.30;99.90;;;;;;4969589;28;20720;-57
2022/03/05 03:57:31;;;;;;;56.38;19.77;;;-5.40;99.90;;;;;;4969110;28;20501;-57
2022/03/05 03:59:56;;;;;;;66.78;21.52;;;-5.50;99.90;;;;;;4970161;28;20038;-56
2022/03/05 04:02:22;;;;;;;59.40;20.77;;;-5.40;99.90;;;;;;4968400;28;20489;-55
2022/03/05 04:04:49;;;;;;;65.50;22.08;;;-5.50;99.90;;;;;;4969875;28;20038;-55
2022/03/05 04:09:59;;;;;;;58.25;21.15;;;-5.50;99.90;;;;;;4969435;28;20065;-55
2022/03/05 04:12:25;;;;;;;60.10;22.58;;;-5.50;99.90;;;;;;4968850;28;20110;-56
2022/03/05 04:14:51;;;;;;;64.40;21.38;;;-5.50;99.90;;;;;;4969710;28;20030;-56
2022/03/05 04:17:16;;;;;;;78.93;26.60;;;-5.50;99.90;;;;;;4970094;28;20157;-55
2022/03/05 04:19:45;;;;;;;69.35;22.52;;;-5.50;99.90;;;;;;4968699;28;20031;-56
2022/03/05 04:22:11;;;;;;;73.72;24.58;;;-5.50;99.90;;;;;;4969565;28;20170;-56
2022/03/05 04:24:36;;;;;;;76.22;23.20;;;-5.40;99.90;;;;;;4969061;28;20114;-57
2022/03/05 04:27:02;;;;;;;74.30;23.08;;;-5.40;99.90;;;;;;4969707;28;20444;-57
2022/03/05 04:29:28;;;;;;;69.60;21.42;;;-5.40;99.90;;;;;;4969861;28;20027;-55
2022/03/05 04:31:53;;;;;;;75.90;23.92;;;-5.30;99.90;;;;;;4973717;28;20031;-54
2022/03/05 04:34:19;;;;;;;72.53;23.52;;;-5.30;99.90;;;;;;4973043;28;20457;-55
2022/03/05 04:36:45;;;;;;;85.78;29.75;;;-5.30;99.90;;;;;;4973536;28;20023;-52
2022/03/05 04:39:11;;;;;;;64.38;22.33;;;-5.20;99.90;;;;;;4973400;28;20047;-52
2022/03/05 04:41:37;;;;;;;67.70;20.75;;;-5.20;99.90;;;;;;4972827;28;20050;-54
2022/03/05 04:44:03;;;;;;;85.65;23.88;;;-5.10;99.90;;;;;;4974201;28;20094;-55
2022/03/05 04:46:28;;;;;;;77.13;23.45;;;-5.00;99.90;;;;;;4972791;28;20059;-54
2022/03/05 04:48:54;;;;;;;75.88;24.63;;;-4.90;99.90;;;;;;4973506;28;20086;-54
2022/03/05 04:51:20;;;;;;;78.03;24.35;;;-4.80;99.90;;;;;;4972357;28;20039;-54
2022/03/05 04:53:45;;;;;;;81.38;24.13;;;-4.70;99.90;;;;;;4973231;28;20085;-52
2022/03/05 04:56:11;;;;;;;64.63;20.90;;;-4.70;99.90;;;;;;4973436;28;20059;-53
2022/03/05 04:58:37;;;;;;;60.97;21.67;;;-4.60;99.90;;;;;;4972566;28;20026;-53
2022/03/05 05:01:03;;;;;;;50.85;20.02;;;-4.60;99.90;;;;;;4973289;28;20022;-54
2022/03/05 05:03:28;;;;;;;55.97;18.67;;;-4.60;99.90;;;;;;4972531;28;20109;-53
2022/03/05 05:05:54;;;;;;;47.55;18.58;;;-4.60;99.90;;;;;;4972618;28;20062;-54
2022/03/05 05:08:20;;;;;;;49.70;18.50;;;-4.60;99.90;;;;;;4972762;28;20058;-55
2022/03/05 05:10:45;;;;;;;54.30;17.65;;;-4.50;99.90;;;;;;4972965;28;20023;-54
2022/03/05 05:13:11;;;;;;;46.15;16.80;;;-4.50;99.90;;;;;;4972063;28;20531;-55
2022/03/05 05:15:37;;;;;;;47.53;18.30;;;-4.50;99.90;;;;;;4972876;28;20030;-55
2022/03/05 05:18:02;;;;;;;47.15;16.00;;;-4.50;99.90;;;;;;4972897;28;20441;-53
2022/03/05 05:20:30;;;;;;;45.13;17.98;;;-4.50;99.90;;;;;;4972540;28;20105;-53
2022/03/05 05:22:55;;;;;;;51.00;18.60;;;-4.50;99.90;;;;;;4972391;28;20142;-54
2022/03/05 05:25:21;;;;;;;52.58;19.83;;;-4.40;99.90;;;;;;4972036;28;20553;-54
2022/03/05 05:27:46;;;;;;;46.38;19.15;;;-4.40;99.90;;;;;;4972448;28;20027;-54
2022/03/05 05:30:12;;;;;;;44.33;18.15;;;-4.40;99.90;;;;;;4971535;28;20031;-54
2022/03/05 05:32:38;;;;;;;51.33;17.73;;;-4.30;99.90;;;;;;4986560;28;20426;-53
2022/03/05 05:35:05;;;;;;;46.55;17.02;;;-4.30;99.90;;;;;;4971278;28;20019;-54
2022/03/05 05:37:31;;;;;;;48.80;18.55;;;-4.30;99.90;;;;;;4972357;28;20030;-54
2022/03/05 05:39:57;;;;;;;39.92;17.38;;;-4.30;99.90;;;;;;4972133;28;20038;-53
2022/03/05 05:42:23;;;;;;;47.65;17.48;;;-4.20;99.90;;;;;;4970234;28;20030;-54
2022/03/05 05:44:48;;;;;;;46.25;17.95;;;-4.20;99.90;;;;;;4972354;28;20367;-55
2022/03/05 05:47:14;;;;;;;52.47;18.88;;;-4.20;99.90;;;;;;4972154;28;20025;-54
2022/03/05 05:49:40;;;;;;;55.28;18.85;;;-4.20;99.90;;;;;;4972164;28;20118;-53
2022/03/05 05:52:06;;;;;;;44.17;18.50;;;-4.20;99.90;;;;;;4971772;28;20149;-54
2022/03/05 05:54:32;;;;;;;47.13;18.90;;;-4.20;99.90;;;;;;4972361;28;20443;-53
2022/03/05 05:56:57;;;;;;;52.85;18.58;;;-4.10;99.90;;;;;;4971750;28;20039;-53
2022/03/05 05:59:23;;;;;;;51.40;19.13;;;-4.20;99.90;;;;;;4972087;28;20058;-55
2022/03/05 06:01:49;;;;;;;44.65;18.23;;;-4.20;99.90;;;;;;4971263;28;20023;-54
2022/03/05 06:04:14;;;;;;;47.33;17.35;;;-4.20;99.90;;;;;;4970882;28;20046;-53
2022/03/05 06:06:40;;;;;;;47.78;17.85;;;-4.10;99.90;;;;;;4971193;28;20045;-56
2022/03/05 06:09:06;;;;;;;49.58;18.65;;;-4.10;99.90;;;;;;4971457;28;20045;-57
2022/03/05 06:11:32;;;;;;;51.42;17.27;;;-4.00;99.90;;;;;;4971639;28;20050;-57
2022/03/05 06:13:57;;;;;;;44.63;17.83;;;-4.00;99.90;;;;;;4971449;28;20536;-55
2022/03/05 06:16:23;;;;;;;52.65;18.70;;;-3.90;99.90;;;;;;4969454;28;20024;-55
2022/03/05 06:18:48;;;;;;;41.65;16.95;;;-3.90;99.90;;;;;;4971402;28;20035;-55
2022/03/05 06:21:14;;;;;;;46.05;17.67;;;-3.80;99.90;;;;;;4970837;28;20493;-56
2022/03/05 06:23:40;;;;;;;46.25;18.55;;;-3.80;99.90;;;;;;4971998;28;20035;-57
2022/03/05 06:26:06;;;;;;;49.92;20.50;;;-3.70;99.90;;;;;;4971863;28;20097;-58
2022/03/05 06:28:33;;;;;;;36.92;17.67;;;-3.70;99.90;;;;;;4971440;28;20035;-57
2022/03/05 06:30:59;;;;;;;41.72;16.55;;;-3.60;99.90;;;;;;4971009;28;20031;-56
2022/03/05 06:33:25;;;;;;;42.22;16.63;;;-3.50;99.90;;;;;;4971521;28;20038;-56
2022/03/05 06:35:51;;;;;;;45.80;18.08;;;-3.50;99.90;;;;;;4971376;28;20078;-57
2022/03/05 06:38:17;;;;;;;44.72;18.38;;;-3.50;99.90;;;;;;4971384;28;20505;-57
2022/03/05 06:40:43;;;;;;;42.33;16.70;;;-3.40;99.90;;;;;;4971553;28;20362;-56
2022/03/05 06:43:09;;;;;;;48.17;21.00;;;-3.40;99.90;;;;;;4969838;28;20081;-57
2022/03/05 06:45:34;;;;;;;43.00;18.38;;;-3.30;99.90;;;;;;4971257;28;20023;-55
2022/03/05 06:48:00;;;;;;;36.15;15.20;;;-3.20;99.90;;;;;;4970597;28;20027;-55
2022/03/05 06:50:26;;;;;;;46.47;17.60;;;-3.10;99.90;;;;;;4971574;28;20033;-56
2022/03/05 06:52:51;;;;;;;36.35;16.20;;;-3.00;99.90;;;;;;4970663;28;20605;-56
2022/03/05 06:55:17;;;;;;;38.72;17.38;;;-3.00;99.90;;;;;;4970737;28;20037;-57
2022/03/05 06:57:44;;;;;;;39.28;15.88;;;-3.00;99.90;;;;;;4971176;28;20127;-57
2022/03/05 07:00:12;;;;;;;44.58;17.50;;;-2.90;99.90;;;;;;4970453;28;20030;-55
2022/03/05 07:02:38;;;;;;;38.03;16.50;;;-2.80;99.90;;;;;;4970003;28;20019;-55
2022/03/05 07:05:04;;;;;;;42.80;16.55;;;-2.80;99.90;;;;;;4985673;28;20026;-57
2022/03/05 07:07:31;;;;;;;38.20;17.60;;;-2.70;99.90;;;;;;4970678;28;20038;-56
2022/03/05 07:09:56;;;;;;;36.10;17.95;;;-2.60;99.90;;;;;;4969369;28;20039;-57
2022/03/05 07:12:22;;;;;;;45.85;18.10;;;-2.50;99.90;;;;;;4964642;28;20482;-57
2022/03/05 07:14:49;;;;;;;37.00;17.70;;;-2.40;99.90;;;;;;4969314;28;20027;-53
2022/03/05 07:17:18;;;;;;;34.88;16.17;;;-2.30;99.90;;;;;;4970012;28;20114;-53
2022/03/05 07:19:45;;;;;;;34.53;17.23;;;-2.20;99.90;;;;;;4970482;28;20058;-54
2022/03/05 07:22:11;;;;;;;41.30;15.82;;;-2.20;99.90;;;;;;4968869;28;20046;-55
2022/03/05 07:24:36;;;;;;;37.22;15.93;;;-2.10;99.90;;;;;;4969716;28;20031;-53
2022/03/05 07:27:03;;;;;;;40.65;17.55;;;-2.00;99.90;;;;;;4968658;28;20077;-53
2022/03/05 07:29:28;;;;;;;35.38;16.27;;;-1.90;99.90;;;;;;4969451;28;20018;-55
2022/03/05 07:31:54;;;;;;;36.58;17.58;;;-1.90;99.90;;;;;;4968763;28;20031;-54
2022/03/05 07:34:20;;;;;;;35.75;16.45;;;-1.90;99.90;;;;;;4969544;28;20030;-55
2022/03/05 07:36:45;;;;;;;40.50;16.77;;;-1.80;99.90;;;;;;4969618;28;20027;-58
2022/03/05 07:39:11;;;;;;;38.35;16.95;;;-1.80;99.90;;;;;;4968858;28;20035;-58
2022/03/05 07:41:37;;;;;;;37.30;17.83;;;-1.70;99.90;;;;;;4968917;28;20030;-56
2022/03/05 07:44:05;;;;;;;40.20;18.50;;;-1.50;99.90;;;;;;4969120;28;20023;-56
2022/03/05 07:46:32;;;;;;;37.47;17.70;;;-1.40;99.90;;;;;;4968763;28;20041;-53
2022/03/05 07:48:57;;;;;;;38.33;17.58;;;-1.20;99.90;;;;;;4968703;28;20030;-54
2022/03/05 07:51:23;;;;;;;35.33;17.60;;;-1.10;99.90;;;;;;4968222;28;20038;-56
2022/03/05 07:53:49;;;;;;;37.47;17.52;;;-1.00;99.90;;;;;;4969698;28;20027;-54
2022/03/05 07:56:14;;;;;;;36.70;17.17;;;-0.90;99.90;;;;;;4969967;28;20019;-54
2022/03/05 07:58:40;;;;;;;37.78;18.35;;;-0.70;99.90;;;;;;4969989;28;20058;-54
2022/03/05 08:01:05;;;;;;;43.30;19.65;;;-0.60;99.90;;;;;;4968338;28;20061;-55
2022/03/05 08:03:31;;;;;;;35.40;17.42;;;-0.50;99.90;;;;;;4969958;28;20114;-54
2022/03/05 08:05:57;;;;;;;36.38;18.75;;;-0.30;99.90;;;;;;4968224;28;20402;-56
2022/03/05 08:08:22;;;;;;;39.50;17.27;;;-0.20;99.90;;;;;;4970328;28;20073;-56
2022/03/05 08:10:48;;;;;;;35.60;16.50;;;0.00;99.90;;;;;;4968974;28;20135;-55
2022/03/05 08:13:13;;;;;;;33.25;17.85;;;0.10;99.90;;;;;;4969614;28;20031;-55
2022/03/05 08:15:39;;;;;;;27.45;15.57;;;0.20;99.90;;;;;;4969295;28;20497;-55
2022/03/05 08:18:05;;;;;;;35.47;16.52;;;0.40;99.90;;;;;;4969187;28;20041;-55
2022/03/05 08:20:31;;;;;;;33.28;17.13;;;0.60;99.90;;;;;;4969730;28;20103;-56
2022/03/05 08:22:58;;;;;;;32.88;17.45;;;0.70;99.90;;;;;;4968785;28;20614;-54
2022/03/05 08:25:24;;;;;;;31.40;16.73;;;0.80;99.90;;;;;;4969593;28;20054;-54
2022/03/05 08:27:50;;;;;;;36.40;17.45;;;1.00;99.90;;;;;;4968766;28;20042;-55
2022/03/05 08:30:17;;;;;;;33.35;16.40;;;1.10;99.90;;;;;;4968948;28;20026;-54
2022/03/05 08:32:43;;;;;;;30.17;17.40;;;1.30;99.90;;;;;;4969225;28;20098;-56
2022/03/05 08:35:11;;;;;;;33.30;16.08;;;1.50;99.90;;;;;;4968782;28;20049;-56
2022/03/05 08:37:37;;;;;;;32.00;17.17;;;1.70;99.90;;;;;;4969554;28;20106;-55
2022/03/05 08:40:05;;;;;;;34.15;17.02;;;1.80;99.90;;;;;;4968272;28;20378;-55
2022/03/05 08:42:30;;;;;;;27.02;15.60;;;1.90;99.90;;;;;;4968941;28;20492;-54
2022/03/05 08:44:56;;;;;;;31.27;16.45;;;2.10;99.90;;;;;;4968156;28;20122;-56
2022/03/05 08:47:21;;;;;;;30.98;16.55;;;2.10;99.90;;;;;;4969370;28;20053;-56
2022/03/05 08:49:47;;;;;;;25.98;14.38;;;2.30;99.90;;;;;;4969325;28;20065;-55
2022/03/05 08:52:13;;;;;;;21.63;14.30;;;2.30;99.90;;;;;;4968635;28;20114;-55
2022/03/05 08:54:38;;;;;;;24.65;14.95;;;2.50;99.90;;;;;;4969249;28;20058;-56
2022/03/05 08:57:04;;;;;;;23.58;14.88;;;2.50;99.90;;;;;;4967843;28;20436;-56
2022/03/05 08:59:30;;;;;;;27.02;15.70;;;2.60;99.90;;;;;;4968650;28;20030;-55
2022/03/05 09:01:56;;;;;;;23.35;13.90;;;2.60;99.90;;;;;;4968810;28;20457;-56
2022/03/05 09:04:22;;;;;;;22.83;14.25;;;2.80;99.90;;;;;;4969085;28;20027;-56
2022/03/05 09:06:48;;;;;;;21.85;15.07;;;3.10;99.90;;;;;;4968181;28;20335;-54
2022/03/05 09:09:13;;;;;;;29.92;15.70;;;3.50;99.90;;;;;;4969063;28;20027;-55
2022/03/05 09:11:39;;;;;;;21.88;14.07;;;3.80;99.90;;;;;;4968832;28;20011;-56
2022/03/05 09:14:05;;;;;;;21.23;14.02;;;4.30;99.90;;;;;;4968340;28;20034;-57
2022/03/05 09:16:31;;;;;;;21.88;13.30;;;4.70;97.60;;;;;;4969167;28;20401;-57
2022/03/05 09:18:57;;;;;;;18.33;13.15;;;5.10;95.30;;;;;;4971683;28;20042;-56
2022/03/05 09:21:23;;;;;;;20.95;13.07;;;5.40;93.30;;;;;;4971750;28;20043;-56
2022/03/05 09:23:48;;;;;;;23.98;14.95;;;5.80;91.90;;;;;;4971845;28;20469;-56
2022/03/05 09:26:15;;;;;;;20.08;14.13;;;6.20;90.50;;;;;;4973299;28;20022;-55
2022/03/05 09:28:41;;;;;;;17.67;13.30;;;6.70;88.40;;;;;;4972158;28;20043;-57
2022/03/05 09:31:07;;;;;;;16.92;13.55;;;7.10;85.60;;;;;;4971672;28;20037;-56
2022/03/05 09:33:32;;;;;;;18.55;13.68;;;8.10;83.80;;;;;;4972531;28;20398;-55
2022/03/05 09:35:58;;;;;;;16.75;12.80;;;9.40;77.20;;;;;;4967698;28;20613;-54
2022/03/05 09:38:24;;;;;;;18.55;13.75;;;10.70;71.90;;;;;;4972617;28;20030;-56
2022/03/05 09:40:50;;;;;;;17.77;14.10;;;11.60;67.30;;;;;;4972580;28;20034;-57
2022/03/05 09:43:20;;;;;;;17.25;13.70;;;11.80;64.20;;;;;;4971534;28;20027;-56
2022/03/05 09:45:45;;;;;;;14.27;12.00;;;12.40;63.20;;;;;;4972258;28;20495;-56
2022/03/05 09:48:17;;;;;;;14.93;12.38;;;13.10;60.60;;;;;;4971803;28;20489;-56
2022/03/05 09:50:44;;;;;;;17.30;13.00;;;14.00;58.80;;;;;;4972126;28;20097;-56
2022/03/05 09:53:10;;;;;;;14.25;12.82;;;14.90;55.90;;;;;;4972121;28;20056;-57
2022/03/05 09:55:36;;;;;;;13.73;12.45;;;16.00;54.10;;;;;;4971912;28;20546;-57
2022/03/05 09:58:02;;;;;;;13.32;12.02;;;17.00;50.90;;;;;;4971394;28;20045;-56
2022/03/05 10:00:27;;;;;;;12.40;11.20;;;17.30;48.60;;;;;;4971855;28;20502;-56
2022/03/05 10:02:53;;;;;;;13.52;12.18;;;17.80;47.50;;;;;;4970091;28;20097;-57
2022/03/05 10:05:24;;;;;;;13.32;12.15;;;17.90;46.10;;;;;;4972257;28;20015;-57
2022/03/05 10:08:01;;;;;;;12.18;11.02;;;17.60;46.70;;;;;;4971884;28;20035;-57
2022/03/05 10:10:28;;;;;;;10.88;9.75;;;17.00;46.70;;;;;;4970200;28;20078;-58
2022/03/05 10:12:54;;;;;;;11.65;9.95;;;16.30;47.20;;;;;;4971198;28;20027;-55
2022/03/05 10:15:21;;;;;;;11.15;10.02;;;15.50;51.00;;;;;;4970543;28;20034;-55
2022/03/05 10:17:54;;;;;;;11.32;9.32;;;15.20;50.30;;;;;;4971583;28;20042;-57
2022/03/05 10:20:28;;;;;;;11.52;10.35;;;15.60;50.30;;;;;;4971797;28;20031;-56
2022/03/05 10:22:58;;;;;;;11.90;9.43;;;15.70;51.10;;;;;;4971093;28;20042;-56
2022/03/05 10:25:45;;;;;;;9.32;8.45;;;16.30;50.10;;;;;;4971142;28;20033;-58
2022/03/05 10:28:22;;;;;;;9.10;7.57;;;16.30;45.70;;;;;;4971277;28;20042;-56
2022/03/05 10:31:07;;;;;;;7.85;7.05;;;15.90;45.80;;;;;;4986169;28;20074;-55
2022/03/05 10:33:43;;;;;;;7.88;7.07;;;15.90;47.50;;;;;;4971475;28;20685;-58
2022/03/05 10:36:25;;;;;;;9.55;8.63;;;16.70;48.30;;;;;;4970538;28;20038;-56
2022/03/05 10:39:04;;;;;;;8.25;7.53;;;17.20;46.80;;;;;;4971084;28;20034;-58
2022/03/05 10:41:36;;;;;;;10.45;9.45;;;16.30;44.20;;;;;;4970699;28;20031;-57
2022/03/05 10:44:05;;;;;;;;;;;15.40;46.80;;;;;;4971187;28;20027;-56
2022/03/05 10:46:38;;;;;;;9.25;8.35;;;15.40;49.30;;;;;;4971467;28;19914;-57
2022/03/05 10:49:27;;;;;;;9.93;9.02;;;15.10;49.20;;;;;;4970493;28;20031;-56
2022/03/05 10:52:02;;;;;;;10.32;9.40;;;14.60;50.10;;;;;;4984121;28;20117;-57
2022/03/05 10:54:37;;;;;;;9.07;8.27;;;14.00;50.90;;;;;;4970250;28;20647;-55
2022/03/05 10:57:23;;;;;;;9.80;8.93;;;13.20;51.20;;;;;;4971176;28;20038;-56
2022/03/05 10:59:50;;;;;;;10.10;9.20;;;12.70;52.90;;;;;;4970330;28;20070;-57
2022/03/05 11:02:19;;;;;;;9.07;8.15;;;12.70;53.90;;;;;;4970329;28;20033;-57
2022/03/05 11:04:46;;;;;;;10.07;9.07;;;12.80;56.10;;;;;;4970468;28;20498;-57
2022/03/05 11:07:13;;;;;;;9.73;8.82;;;12.70;53.90;;;;;;4970618;28;20031;-55
2022/03/05 11:09:42;;;;;;;12.55;9.77;;;12.50;53.70;;;;;;4970500;28;20027;-57
2022/03/05 11:12:09;;;;;;;9.35;8.45;;;12.20;53.90;;;;;;4968554;28;20031;-57
2022/03/05 11:14:36;;;;;;;11.30;7.97;;;13.00;54.00;;;;;;4969647;28;20037;-57
2022/03/05 11:17:03;;;;;;;9.18;8.38;;;13.00;51.10;;;;;;4969672;28;20526;-57
2022/03/05 11:19:30;;;;;;;8.65;7.75;;;12.60;51.70;;;;;;4970032;28;20437;-56
2022/03/05 11:21:57;;;;;;;8.85;8.05;;;12.60;53.50;;;;;;4969983;28;20038;-57
2022/03/05 11:24:23;;;;;;;9.85;8.77;;;12.40;51.80;;;;;;4970708;28;20039;-55
2022/03/05 11:26:51;;;;;;;9.45;8.07;;;12.00;53.40;;;;;;4970295;28;20676;-55
2022/03/05 11:29:24;;;;;;;10.23;7.70;;;11.60;54.10;;;;;;4970407;28;20031;-55
2022/03/05 11:31:50;;;;;;;10.70;9.30;;;11.20;53.70;;;;;;4970385;28;20070;-57
2022/03/05 11:34:24;;;;;;;7.88;6.70;;;10.80;56.70;;;;;;4969936;28;20499;-57
2022/03/05 11:36:52;;;;;;;9.35;7.07;;;10.40;54.80;;;;;;4970343;28;20110;-56
2022/03/05 11:39:19;;;;;;;8.57;7.53;;;10.00;55.50;;;;;;4969198;28;20728;-56
2022/03/05 11:41:57;;;;;;;9.20;7.32;;;9.70;56.80;;;;;;4969532;28;20031;-56
2022/03/05 11:44:28;;;;;;;6.57;5.88;;;9.60;56.40;;;;;;4969335;28;20450;-57
2022/03/05 11:47:18;;;;;;;7.82;6.55;;;9.30;55.00;;;;;;4970477;28;20022;-56
2022/03/05 11:49:59;;;;;;;13.80;9.85;;;9.20;56.30;;;;;;4968818;28;20047;-55
2022/03/05 11:52:40;;;;;;;8.47;6.13;;;9.20;56.30;;;;;;4969642;28;20047;-56
2022/03/05 11:55:12;;;;;;;6.68;5.97;;;9.20;54.90;;;;;;4968551;28;20394;-54
2022/03/05 11:57:50;;;;;;;7.45;6.40;;;9.20;54.90;;;;;;4968701;28;20054;-55
2022/03/05 12:00:25;;;;;;;7.25;6.32;;;8.90;55.60;;;;;;4984770;28;20521;-57
2022/03/05 12:02:55;;;;;;;7.47;5.50;;;8.60;56.90;;;;;;4968126;28;20085;-56
2022/03/05 12:05:36;;;;;;;6.65;5.10;;;8.60;57.00;;;;;;4970909;28;20031;-57
2022/03/05 12:08:02;;;;;;;5.82;4.40;;;8.70;56.80;;;;;;4949364;28;20043;-57
2022/03/05 12:10:28;;;;;;;6.82;5.78;;;8.90;55.30;;;;;;4967541;28;20065;-56
2022/03/05 12:12:55;;;;;;;6.18;5.20;;;9.10;55.10;;;;;;4969324;28;20078;-56
2022/03/05 12:15:28;;;;;;;5.30;4.78;;;9.10;54.00;;;;;;4969421;28;20039;-55
2022/03/05 12:17:54;;;;;;;6.13;5.15;;;8.70;53.70;;;;;;4969194;28;20046;-56
2022/03/05 12:20:27;;;;;;;5.90;5.28;;;8.50;54.50;;;;;;4970134;28;20473;-55
2022/03/05 12:22:58;;;;;;;6.20;5.45;;;8.20;56.20;;;;;;4948917;29;20433;-56
2022/03/05 12:25:26;;;;;;;8.10;4.50;;;8.20;55.30;;;;;;4966797;28;20027;-56
2022/03/05 12:27:53;;;;;;;6.35;5.55;;;7.70;54.90;;;;;;4969435;28;20031;-57
2022/03/05 12:30:22;;;;;;;4.93;4.25;;;7.50;56.00;;;;;;4969482;28;20114;-55
2022/03/05 12:32:48;;;;;;;5.85;4.30;;;7.20;56.00;;;;;;4969910;28;20054;-56
2022/03/05 12:35:16;;;;;;;4.25;3.65;;;7.20;56.30;;;;;;4969750;28;20473;-55